sensor_id;sensor_type;location;lat;lon;timestamp;pressure;altitude;pressure_sealevel;temperature;humidity
75192;BME280;63771;52.580;9.734;2023-05-07T00:01:59;101664.53;;;10.68;78.70
75192;BME280;63771;52.580;9.734;2023-05-07T00:04:24;101661.22;;;10.69;78.62
75192;BME280;63771;52.580;9.734;2023-05-07T00:06:49;101666.63;;;10.73;78.66
75192;BME280;63771;52.580;9.734;2023-05-07T00:09:15;101662.13;;;10.70;78.50
75192;BME280;63771;52.580;9.734;2023-05-07T00:11:41;101666.78;;;10.83;78.27
75192;BME280;63771;52.580;9.734;2023-05-07T00:14:06;101666.63;;;10.64;78.69
75192;BME280;63771;52.580;9.734;2023-05-07T00:16:32;101665.47;;;10.60;78.85
75192;BME280;63771;52.580;9.734;2023-05-07T00:18:57;101665.16;;;10.57;79.28
75192;BME280;63771;52.580;9.734;2023-05-07T00:21:22;101666.19;;;10.68;79.17
75192;BME280;63771;52.580;9.734;2023-05-07T00:23:51;101664.56;;;10.60;79.47
75192;BME280;63771;52.580;9.734;2023-05-07T00:26:16;101664.09;;;10.64;78.86
75192;BME280;63771;52.580;9.734;2023-05-07T00:28:42;101664.56;;;10.51;79.52
75192;BME280;63771;52.580;9.734;2023-05-07T00:31:07;101662.19;;;10.44;79.68
75192;BME280;63771;52.580;9.734;2023-05-07T00:33:32;101666.97;;;10.50;79.56
75192;BME280;63771;52.580;9.734;2023-05-07T00:35:58;101668.78;;;10.51;79.61
75192;BME280;63771;52.580;9.734;2023-05-07T00:38:23;101657.94;;;10.53;79.16
75192;BME280;63771;52.580;9.734;2023-05-07T00:40:48;101663.94;;;10.62;79.47
75192;BME280;63771;52.580;9.734;2023-05-07T00:43:14;101654.81;;;10.56;79.18
75192;BME280;63771;52.580;9.734;2023-05-07T00:45:40;101660.50;;;10.53;79.14
75192;BME280;63771;52.580;9.734;2023-05-07T00:48:05;101654.06;;;10.48;79.34
75192;BME280;63771;52.580;9.734;2023-05-07T00:50:32;101653.91;;;10.47;79.40
75192;BME280;63771;52.580;9.734;2023-05-07T00:52:58;101646.56;;;10.41;79.71
75192;BME280;63771;52.580;9.734;2023-05-07T00:55:23;101642.66;;;10.44;79.52
75192;BME280;63771;52.580;9.734;2023-05-07T00:57:50;101649.56;;;10.45;79.19
75192;BME280;63771;52.580;9.734;2023-05-07T01:00:16;101646.56;;;10.50;79.14
75192;BME280;63771;52.580;9.734;2023-05-07T01:02:42;101646.09;;;10.54;78.94
75192;BME280;63771;52.580;9.734;2023-05-07T01:05:10;101643.25;;;10.51;79.38
75192;BME280;63771;52.580;9.734;2023-05-07T01:07:38;101647.31;;;10.31;79.53
75192;BME280;63771;52.580;9.734;2023-05-07T01:10:05;101645.66;;;10.40;79.69
75192;BME280;63771;52.580;9.734;2023-05-07T01:12:32;101641.75;;;10.27;79.86
75192;BME280;63771;52.580;9.734;2023-05-07T01:14:57;101645.94;;;10.43;79.55
75192;BME280;63771;52.580;9.734;2023-05-07T01:17:23;101642.63;;;10.53;79.12
75192;BME280;63771;52.580;9.734;2023-05-07T01:19:48;101635.44;;;10.49;79.13
75192;BME280;63771;52.580;9.734;2023-05-07T01:22:16;101638.16;;;10.51;79.03
75192;BME280;63771;52.580;9.734;2023-05-07T01:24:45;101642.50;;;10.52;78.92
75192;BME280;63771;52.580;9.734;2023-05-07T01:27:11;101642.50;;;10.52;79.15
75192;BME280;63771;52.580;9.734;2023-05-07T01:29:36;101657.22;;;10.37;79.58
75192;BME280;63771;52.580;9.734;2023-05-07T01:32:02;101654.81;;;10.47;79.26
75192;BME280;63771;52.580;9.734;2023-05-07T01:34:31;101645.38;;;10.55;79.12
75192;BME280;63771;52.580;9.734;2023-05-07T01:36:58;101645.81;;;10.51;79.19
75192;BME280;63771;52.580;9.734;2023-05-07T01:39:25;101652.25;;;10.47;79.25
75192;BME280;63771;52.580;9.734;2023-05-07T01:41:50;101649.53;;;10.54;79.26
75192;BME280;63771;52.580;9.734;2023-05-07T01:44:16;101643.09;;;10.58;79.00
75192;BME280;63771;52.580;9.734;2023-05-07T01:46:43;101646.53;;;10.58;78.89
75192;BME280;63771;52.580;9.734;2023-05-07T01:49:09;101651.06;;;10.61;79.09
75192;BME280;63771;52.580;9.734;2023-05-07T01:51:34;101651.31;;;10.64;78.81
75192;BME280;63771;52.580;9.734;2023-05-07T01:54:00;101650.75;;;10.58;79.12
75192;BME280;63771;52.580;9.734;2023-05-07T01:56:26;101654.38;;;10.60;79.20
75192;BME280;63771;52.580;9.734;2023-05-07T01:58:51;101655.84;;;10.49;79.24
75192;BME280;63771;52.580;9.734;2023-05-07T02:01:17;101641.47;;;10.50;79.46
75192;BME280;63771;52.580;9.734;2023-05-07T02:03:43;101650.59;;;10.56;79.28
75192;BME280;63771;52.580;9.734;2023-05-07T02:06:08;101648.81;;;10.55;79.28
75192;BME280;63771;52.580;9.734;2023-05-07T02:08:33;101646.56;;;10.50;78.95
75192;BME280;63771;52.580;9.734;2023-05-07T02:10:59;101650.91;;;10.51;79.16
75192;BME280;63771;52.580;9.734;2023-05-07T02:13:28;101665.63;;;10.44;79.28
75192;BME280;63771;52.580;9.734;2023-05-07T02:15:53;101656.91;;;10.42;79.19
75192;BME280;63771;52.580;9.734;2023-05-07T02:18:19;101659.31;;;10.32;79.29
75192;BME280;63771;52.580;9.734;2023-05-07T02:20:44;101664.88;;;10.37;79.53
75192;BME280;63771;52.580;9.734;2023-05-07T02:23:09;101670.09;;;10.38;79.04
75192;BME280;63771;52.580;9.734;2023-05-07T02:25:35;101666.97;;;10.41;79.08
75192;BME280;63771;52.580;9.734;2023-05-07T02:28:00;101660.06;;;10.31;79.32
75192;BME280;63771;52.580;9.734;2023-05-07T02:30:25;101661.09;;;10.33;79.17
75192;BME280;63771;52.580;9.734;2023-05-07T02:32:51;101657.97;;;10.27;79.24
75192;BME280;63771;52.580;9.734;2023-05-07T02:35:16;101655.53;;;10.20;79.89
75192;BME280;63771;52.580;9.734;2023-05-07T02:37:42;101661.25;;;10.26;79.88
75192;BME280;63771;52.580;9.734;2023-05-07T02:40:08;101662.03;;;10.25;79.42
75192;BME280;63771;52.580;9.734;2023-05-07T02:42:33;101666.97;;;10.32;79.78
75192;BME280;63771;52.580;9.734;2023-05-07T02:44:58;101663.97;;;10.36;79.30
75192;BME280;63771;52.580;9.734;2023-05-07T02:47:24;101669.38;;;10.31;79.65
75192;BME280;63771;52.580;9.734;2023-05-07T02:49:52;101661.56;;;10.38;79.30
75192;BME280;63771;52.580;9.734;2023-05-07T02:52:18;101664.88;;;10.37;79.30
75192;BME280;63771;52.580;9.734;2023-05-07T02:54:43;101667.72;;;10.31;79.46
75192;BME280;63771;52.580;9.734;2023-05-07T02:57:08;101661.28;;;10.35;79.45
75192;BME280;63771;52.580;9.734;2023-05-07T02:59:34;101657.34;;;10.38;79.18
75192;BME280;63771;52.580;9.734;2023-05-07T03:01:59;101658.41;;;10.32;79.37
75192;BME280;63771;52.580;9.734;2023-05-07T03:04:24;101659.31;;;10.32;79.37
75192;BME280;63771;52.580;9.734;2023-05-07T03:06:49;101660.38;;;10.34;79.60
75192;BME280;63771;52.580;9.734;2023-05-07T03:09:15;101655.28;;;10.34;79.52
75192;BME280;63771;52.580;9.734;2023-05-07T03:11:41;101662.75;;;10.41;79.10
75192;BME280;63771;52.580;9.734;2023-05-07T03:14:06;101655.56;;;10.37;79.47
75192;BME280;63771;52.580;9.734;2023-05-07T03:16:32;101661.28;;;10.35;79.48
75192;BME280;63771;52.580;9.734;2023-05-07T03:18:57;101665.13;;;10.23;79.79
75192;BME280;63771;52.580;9.734;2023-05-07T03:21:22;101661.22;;;10.17;79.87
75192;BME280;63771;52.580;9.734;2023-05-07T03:23:48;101646.09;;;10.19;79.58
75192;BME280;63771;52.580;9.734;2023-05-07T03:26:13;101654.38;;;10.25;79.53
75192;BME280;63771;52.580;9.734;2023-05-07T03:28:38;101654.78;;;10.21;79.37
75192;BME280;63771;52.580;9.734;2023-05-07T03:31:04;101651.06;;;10.26;79.39
75192;BME280;63771;52.580;9.734;2023-05-07T03:33:32;101648.06;;;10.30;78.97
75192;BME280;63771;52.580;9.734;2023-05-07T03:35:58;101645.97;;;10.26;78.94
75192;BME280;63771;52.580;9.734;2023-05-07T03:38:23;101649.56;;;10.28;78.93
75192;BME280;63771;52.580;9.734;2023-05-07T03:40:48;101642.84;;;10.29;79.00
75192;BME280;63771;52.580;9.734;2023-05-07T03:43:14;101646.28;;;10.29;79.38
75192;BME280;63771;52.580;9.734;2023-05-07T03:45:39;101640.56;;;10.32;78.94
75192;BME280;63771;52.580;9.734;2023-05-07T03:48:04;101648.34;;;10.33;78.95
75192;BME280;63771;52.580;9.734;2023-05-07T03:50:30;101650.44;;;10.20;79.37
75192;BME280;63771;52.580;9.734;2023-05-07T03:52:55;101657.63;;;10.07;79.39
75192;BME280;63771;52.580;9.734;2023-05-07T03:55:20;101663.34;;;10.13;79.51
75192;BME280;63771;52.580;9.734;2023-05-07T03:57:46;101673.53;;;10.13;79.57
75192;BME280;63771;52.580;9.734;2023-05-07T04:00:11;101659.72;;;10.11;79.31
75192;BME280;63771;52.580;9.734;2023-05-07T04:02:37;101655.06;;;10.07;79.38
75192;BME280;63771;52.580;9.734;2023-05-07T04:05:02;101659.69;;;10.02;79.40
75192;BME280;63771;52.580;9.734;2023-05-07T04:07:28;101663.34;;;10.13;79.34
75192;BME280;63771;52.580;9.734;2023-05-07T04:09:53;101662.59;;;10.14;79.33
75192;BME280;63771;52.580;9.734;2023-05-07T04:12:18;101662.72;;;10.07;79.81
75192;BME280;63771;52.580;9.734;2023-05-07T04:14:44;101661.34;;;10.02;80.06
75192;BME280;63771;52.580;9.734;2023-05-07T04:17:09;101664.97;;;10.04;80.09
75192;BME280;63771;52.580;9.734;2023-05-07T04:19:36;101671.38;;;9.91;80.15
75192;BME280;63771;52.580;9.734;2023-05-07T04:22:01;101674.25;;;9.94;80.54
75192;BME280;63771;52.580;9.734;2023-05-07T04:24:26;101681.91;;;9.94;80.45
75192;BME280;63771;52.580;9.734;2023-05-07T04:26:52;101680.28;;;10.04;80.30
75192;BME280;63771;52.580;9.734;2023-05-07T04:29:18;101677.84;;;9.97;80.46
75192;BME280;63771;52.580;9.734;2023-05-07T04:31:43;101689.69;;;9.87;80.75
75192;BME280;63771;52.580;9.734;2023-05-07T04:34:11;101687.72;;;9.85;81.29
75192;BME280;63771;52.580;9.734;2023-05-07T04:36:38;101685.97;;;9.92;81.15
75192;BME280;63771;52.580;9.734;2023-05-07T04:39:03;101679.97;;;9.92;81.21
75192;BME280;63771;52.580;9.734;2023-05-07T04:41:28;101688.19;;;9.89;81.22
75192;BME280;63771;52.580;9.734;2023-05-07T04:43:54;101687.00;;;9.94;80.76
75192;BME280;63771;52.580;9.734;2023-05-07T04:46:19;101689.13;;;9.99;80.98
75192;BME280;63771;52.580;9.734;2023-05-07T04:48:44;101694.50;;;9.93;80.59
75192;BME280;63771;52.580;9.734;2023-05-07T04:51:10;101700.63;;;9.95;81.08
75192;BME280;63771;52.580;9.734;2023-05-07T04:53:35;101707.72;;;9.98;80.77
75192;BME280;63771;52.580;9.734;2023-05-07T04:56:01;101711.28;;;9.82;80.80
75192;BME280;63771;52.580;9.734;2023-05-07T04:58:27;101710.69;;;9.93;80.95
75192;BME280;63771;52.580;9.734;2023-05-07T05:00:52;101710.88;;;10.04;80.79
75192;BME280;63771;52.580;9.734;2023-05-07T05:03:17;101710.72;;;10.11;80.21
75192;BME280;63771;52.580;9.734;2023-05-07T05:05:43;101715.38;;;10.15;79.85
75192;BME280;63771;52.580;9.734;2023-05-07T05:08:08;101724.81;;;10.16;80.03
75192;BME280;63771;52.580;9.734;2023-05-07T05:10:33;101710.59;;;10.18;80.17
75192;BME280;63771;52.580;9.734;2023-05-07T05:12:59;101710.97;;;9.97;80.18
75192;BME280;63771;52.580;9.734;2023-05-07T05:15:24;101708.59;;;9.89;80.54
75192;BME280;63771;52.580;9.734;2023-05-07T05:17:49;101716.41;;;10.00;80.34
75192;BME280;63771;52.580;9.734;2023-05-07T05:20:15;101718.34;;;10.02;80.20
75192;BME280;63771;52.580;9.734;2023-05-07T05:22:41;101716.41;;;10.00;80.49
75192;BME280;63771;52.580;9.734;2023-05-07T05:25:07;101716.22;;;9.89;79.77
75192;BME280;63771;52.580;9.734;2023-05-07T05:27:33;101718.78;;;9.89;80.26
75192;BME280;63771;52.580;9.734;2023-05-07T05:29:59;101724.81;;;9.99;79.55
75192;BME280;63771;52.580;9.734;2023-05-07T05:32:24;101731.38;;;9.97;80.04
75192;BME280;63771;52.580;9.734;2023-05-07T05:34:50;101726.59;;;10.00;79.87
75192;BME280;63771;52.580;9.734;2023-05-07T05:37:16;101724.81;;;10.07;79.53
75192;BME280;63771;52.580;9.734;2023-05-07T05:39:41;101724.53;;;10.13;79.35
75192;BME280;63771;52.580;9.734;2023-05-07T05:42:07;101726.31;;;10.05;78.96
75192;BME280;63771;52.580;9.734;2023-05-07T05:44:32;101735.19;;;10.09;78.87
75192;BME280;63771;52.580;9.734;2023-05-07T05:46:58;101729.00;;;10.07;77.80
75192;BME280;63771;52.580;9.734;2023-05-07T05:49:24;101742.06;;;10.10;77.88
75192;BME280;63771;52.580;9.734;2023-05-07T05:51:50;101745.84;;;10.13;77.97
75192;BME280;63771;52.580;9.734;2023-05-07T05:54:15;101734.41;;;10.10;78.06
75192;BME280;63771;52.580;9.734;2023-05-07T05:56:41;101735.03;;;10.16;77.98
75192;BME280;63771;52.580;9.734;2023-05-07T05:59:07;101736.22;;;10.11;77.62
75192;BME280;63771;52.580;9.734;2023-05-07T06:01:32;101728.13;;;10.15;77.49
75192;BME280;63771;52.580;9.734;2023-05-07T06:03:58;101733.69;;;10.19;77.41
75192;BME280;63771;52.580;9.734;2023-05-07T06:06:23;101723.47;;;10.11;76.75
75192;BME280;63771;52.580;9.734;2023-05-07T06:08:48;101727.84;;;10.20;76.76
75192;BME280;63771;52.580;9.734;2023-05-07T06:11:14;101744.84;;;10.29;77.33
75192;BME280;63771;52.580;9.734;2023-05-07T06:13:39;101733.72;;;10.28;77.35
75192;BME280;63771;52.580;9.734;2023-05-07T06:16:05;101736.44;;;10.30;76.92
75192;BME280;63771;52.580;9.734;2023-05-07T06:18:30;101734.72;;;10.22;76.27
75192;BME280;63771;52.580;9.734;2023-05-07T06:20:55;101736.25;;;10.19;76.77
75192;BME280;63771;52.580;9.734;2023-05-07T06:23:21;101740.78;;;10.31;76.84
75192;BME280;63771;52.580;9.734;2023-05-07T06:25:50;101740.50;;;10.36;76.65
75192;BME280;63771;52.580;9.734;2023-05-07T06:28:15;101732.25;;;10.39;76.99
75192;BME280;63771;52.580;9.734;2023-05-07T06:30:41;101733.63;;;10.44;76.91
75192;BME280;63771;52.580;9.734;2023-05-07T06:33:06;101733.75;;;10.54;75.90
75192;BME280;63771;52.580;9.734;2023-05-07T06:35:31;101733.44;;;10.51;76.09
75192;BME280;63771;52.580;9.734;2023-05-07T06:37:57;101735.38;;;10.54;75.83
75192;BME280;63771;52.580;9.734;2023-05-07T06:40:22;101736.75;;;10.59;76.01
75192;BME280;63771;52.580;9.734;2023-05-07T06:42:47;101737.38;;;10.65;76.01
75192;BME280;63771;52.580;9.734;2023-05-07T06:45:12;101739.78;;;10.55;74.62
75192;BME280;63771;52.580;9.734;2023-05-07T06:47:38;101740.94;;;10.58;75.33
75192;BME280;63771;52.580;9.734;2023-05-07T06:50:03;101736.03;;;10.60;75.08
75192;BME280;63771;52.580;9.734;2023-05-07T06:52:29;101732.09;;;10.63;74.69
75192;BME280;63771;52.580;9.734;2023-05-07T06:54:54;101734.50;;;10.62;74.98
75192;BME280;63771;52.580;9.734;2023-05-07T06:57:19;101734.06;;;10.66;74.91
75192;BME280;63771;52.580;9.734;2023-05-07T06:59:45;101738.69;;;10.70;74.54
75192;BME280;63771;52.580;9.734;2023-05-07T07:02:10;101741.41;;;10.71;74.31
75192;BME280;63771;52.580;9.734;2023-05-07T07:04:35;101745.91;;;10.74;73.85
75192;BME280;63771;52.580;9.734;2023-05-07T07:07:00;101745.75;;;10.81;74.88
75192;BME280;63771;52.580;9.734;2023-05-07T07:09:26;101743.81;;;10.87;74.70
75192;BME280;63771;52.580;9.734;2023-05-07T07:11:51;101746.50;;;10.89;74.04
75192;BME280;63771;52.580;9.734;2023-05-07T07:14:17;101743.81;;;10.87;73.73
75192;BME280;63771;52.580;9.734;2023-05-07T07:16:42;101734.63;;;10.89;74.37
75192;BME280;63771;52.580;9.734;2023-05-07T07:19:07;101752.38;;;10.96;74.55
75192;BME280;63771;52.580;9.734;2023-05-07T07:21:33;101748.59;;;11.02;74.52
75192;BME280;63771;52.580;9.734;2023-05-07T07:23:58;101754.75;;;11.04;74.27
75192;BME280;63771;52.580;9.734;2023-05-07T07:26:23;101756.09;;;11.09;74.28
75192;BME280;63771;52.580;9.734;2023-05-07T07:28:49;101760.44;;;11.10;74.49
75192;BME280;63771;52.580;9.734;2023-05-07T07:31:14;101753.09;;;11.04;74.05
75192;BME280;63771;52.580;9.734;2023-05-07T07:33:40;101766.88;;;11.15;74.04
75192;BME280;63771;52.580;9.734;2023-05-07T07:36:06;101762.22;;;11.19;73.58
75192;BME280;63771;52.580;9.734;2023-05-07T07:38:32;101772.00;;;11.15;73.01
75192;BME280;63771;52.580;9.734;2023-05-07T07:40:57;101772.44;;;11.11;72.89
75192;BME280;63771;52.580;9.734;2023-05-07T07:43:23;101776.22;;;11.14;73.76
75192;BME280;63771;52.580;9.734;2023-05-07T07:45:48;101767.97;;;11.08;72.82
75192;BME280;63771;52.580;9.734;2023-05-07T07:48:14;101770.97;;;11.04;72.83
75192;BME280;63771;52.580;9.734;2023-05-07T07:50:39;101772.44;;;11.11;73.73
75192;BME280;63771;52.580;9.734;2023-05-07T07:53:04;101776.22;;;11.14;73.46
75192;BME280;63771;52.580;9.734;2023-05-07T07:55:30;101769.00;;;11.19;72.92
75192;BME280;63771;52.580;9.734;2023-05-07T07:57:56;101765.09;;;11.22;73.03
75192;BME280;63771;52.580;9.734;2023-05-07T08:00:21;101766.56;;;11.29;72.67
75192;BME280;63771;52.580;9.734;2023-05-07T08:02:46;101770.59;;;11.36;73.34
75192;BME280;63771;52.580;9.734;2023-05-07T08:05:12;101769.25;;;11.39;73.40
75192;BME280;63771;52.580;9.734;2023-05-07T08:07:37;101772.84;;;11.33;72.22
75192;BME280;63771;52.580;9.734;2023-05-07T08:10:03;101771.03;;;11.40;73.32
75192;BME280;63771;52.580;9.734;2023-05-07T08:12:28;101775.53;;;11.43;72.47
75192;BME280;63771;52.580;9.734;2023-05-07T08:14:54;101769.19;;;11.48;72.67
75192;BME280;63771;52.580;9.734;2023-05-07T08:17:20;101775.06;;;11.47;72.36
75192;BME280;63771;52.580;9.734;2023-05-07T08:19:47;101774.63;;;11.51;72.27
75192;BME280;63771;52.580;9.734;2023-05-07T08:22:12;101770.06;;;11.57;72.64
75192;BME280;63771;52.580;9.734;2023-05-07T08:24:38;101761.94;;;11.61;72.35
75192;BME280;63771;52.580;9.734;2023-05-07T08:27:03;101760.59;;;11.65;72.71
75192;BME280;63771;52.580;9.734;2023-05-07T08:29:28;101767.63;;;11.76;71.97
75192;BME280;63771;52.580;9.734;2023-05-07T08:31:54;101767.16;;;11.80;71.43
75192;BME280;63771;52.580;9.734;2023-05-07T08:34:19;101773.63;;;11.85;71.40
75192;BME280;63771;52.580;9.734;2023-05-07T08:36:44;101779.56;;;11.94;71.06
75192;BME280;63771;52.580;9.734;2023-05-07T08:39:12;101779.25;;;12.00;71.08
75192;BME280;63771;52.580;9.734;2023-05-07T08:41:37;101781.78;;;12.09;71.38
75192;BME280;63771;52.580;9.734;2023-05-07T08:44:03;101782.81;;;12.11;71.20
75192;BME280;63771;52.580;9.734;2023-05-07T08:46:32;101796.03;;;12.15;70.71
75192;BME280;63771;52.580;9.734;2023-05-07T08:48:57;101795.41;;;12.18;70.20
75192;BME280;63771;52.580;9.734;2023-05-07T08:51:23;101790.16;;;12.16;70.20
75192;BME280;63771;52.580;9.734;2023-05-07T08:53:49;101789.91;;;12.05;69.31
75192;BME280;63771;52.580;9.734;2023-05-07T08:56:15;101783.91;;;12.04;69.31
75192;BME280;63771;52.580;9.734;2023-05-07T08:58:42;101784.44;;;11.91;69.34
75192;BME280;63771;52.580;9.734;2023-05-07T09:01:10;101784.69;;;11.94;70.51
75192;BME280;63771;52.580;9.734;2023-05-07T09:03:38;101797.16;;;12.00;70.50
75192;BME280;63771;52.580;9.734;2023-05-07T09:06:04;101797.59;;;12.05;70.77
75192;BME280;63771;52.580;9.734;2023-05-07T09:08:30;101790.63;;;12.12;70.34
75192;BME280;63771;52.580;9.734;2023-05-07T09:10:55;101789.25;;;12.16;70.84
75192;BME280;63771;52.580;9.734;2023-05-07T09:13:20;101788.63;;;12.18;69.55
75192;BME280;63771;52.580;9.734;2023-05-07T09:15:46;101803.53;;;12.22;70.45
75192;BME280;63771;52.580;9.734;2023-05-07T09:18:14;101804.09;;;12.28;70.44
75192;BME280;63771;52.580;9.734;2023-05-07T09:20:40;101805.91;;;12.21;68.71
75192;BME280;63771;52.580;9.734;2023-05-07T09:23:09;101806.50;;;12.27;70.27
75192;BME280;63771;52.580;9.734;2023-05-07T09:25:35;101799.88;;;12.29;69.90
75192;BME280;63771;52.580;9.734;2023-05-07T09:28:02;101804.22;;;12.30;70.41
75192;BME280;63771;52.580;9.734;2023-05-07T09:30:30;101802.91;;;12.25;69.32
75192;BME280;63771;52.580;9.734;2023-05-07T09:32:57;101795.34;;;12.26;69.72
75192;BME280;63771;52.580;9.734;2023-05-07T09:35:22;101800.81;;;12.21;69.15
75192;BME280;63771;52.580;9.734;2023-05-07T09:37:52;101798.84;;;12.27;70.55
75192;BME280;63771;52.580;9.734;2023-05-07T09:40:25;101797.97;;;12.18;69.86
75192;BME280;63771;52.580;9.734;2023-05-07T09:42:51;101801.69;;;12.21;70.49
75192;BME280;63771;52.580;9.734;2023-05-07T09:45:27;101800.06;;;12.22;69.80
75192;BME280;63771;52.580;9.734;2023-05-07T09:47:55;101802.34;;;12.19;69.57
75192;BME280;63771;52.580;9.734;2023-05-07T09:50:26;101797.56;;;12.13;69.29
75192;BME280;63771;52.580;9.734;2023-05-07T09:52:52;101798.16;;;12.11;69.50
75192;BME280;63771;52.580;9.734;2023-05-07T09:55:19;101792.31;;;12.12;69.61
75192;BME280;63771;52.580;9.734;2023-05-07T09:57:45;101788.34;;;12.15;69.65
75192;BME280;63771;52.580;9.734;2023-05-07T10:00:11;101792.41;;;12.22;69.56
75192;BME280;63771;52.580;9.734;2023-05-07T10:02:39;101796.53;;;12.30;70.16
75192;BME280;63771;52.580;9.734;2023-05-07T10:05:12;101797.41;;;12.39;70.34
75192;BME280;63771;52.580;9.734;2023-05-07T10:07:39;101805.41;;;12.52;70.36
75192;BME280;63771;52.580;9.734;2023-05-07T10:10:06;101793.34;;;12.60;70.17
75192;BME280;63771;52.580;9.734;2023-05-07T10:12:32;101801.09;;;12.70;69.61
75192;BME280;63771;52.580;9.734;2023-05-07T10:15:10;101800.75;;;12.76;68.87
75192;BME280;63771;52.580;9.734;2023-05-07T10:17:36;101799.75;;;12.84;69.83
75192;BME280;63771;52.580;9.734;2023-05-07T10:20:03;101797.41;;;12.77;66.14
75192;BME280;63771;52.580;9.734;2023-05-07T10:22:33;101804.06;;;12.75;67.32
75192;BME280;63771;52.580;9.734;2023-05-07T10:25:06;101800.09;;;12.78;67.28
75192;BME280;63771;52.580;9.734;2023-05-07T10:27:34;101804.50;;;12.79;66.97
75192;BME280;63771;52.580;9.734;2023-05-07T10:32:49;101807.25;;;12.91;68.09
75192;BME280;63771;52.580;9.734;2023-05-07T10:35:20;101803.31;;;12.95;67.05
75192;BME280;63771;52.580;9.734;2023-05-07T10:37:47;101796.94;;;13.00;66.78
75192;BME280;63771;52.580;9.734;2023-05-07T10:40:13;101806.84;;;13.05;67.87
75192;BME280;63771;52.580;9.734;2023-05-07T10:42:39;101816.09;;;13.14;67.59
75192;BME280;63771;52.580;9.734;2023-05-07T10:45:14;101808.34;;;13.22;68.23
75192;BME280;63771;52.580;9.734;2023-05-07T10:48:09;101810.19;;;13.34;67.41
75192;BME280;63771;52.580;9.734;2023-05-07T10:50:37;101810.88;;;13.41;67.57
75192;BME280;63771;52.580;9.734;2023-05-07T10:55:47;101810.88;;;13.41;65.52
75192;BME280;63771;52.580;9.734;2023-05-07T10:58:29;101805.53;;;13.48;66.51
75192;BME280;63771;52.580;9.734;2023-05-07T11:00:59;101800.66;;;13.51;66.09
75192;BME280;63771;52.580;9.734;2023-05-07T11:03:25;101796.69;;;13.55;65.22
75192;BME280;63771;52.580;9.734;2023-05-07T11:08:57;101809.16;;;13.61;67.49
75192;BME280;63771;52.580;9.734;2023-05-07T11:11:50;101812.53;;;13.70;65.08
75192;BME280;63771;52.580;9.734;2023-05-07T11:14:42;101808.56;;;13.73;65.19
75192;BME280;63771;52.580;9.734;2023-05-07T11:17:09;101793.72;;;13.79;65.84
75192;BME280;63771;52.580;9.734;2023-05-07T11:19:48;101799.25;;;13.84;64.86
75192;BME280;63771;52.580;9.734;2023-05-07T11:25:05;101802.56;;;13.93;66.73
75192;BME280;63771;52.580;9.734;2023-05-07T11:27:31;101798.97;;;13.91;63.78
75192;BME280;63771;52.580;9.734;2023-05-07T11:29:57;101795.50;;;13.80;63.87
75192;BME280;63771;52.580;9.734;2023-05-07T11:32:26;101794.84;;;13.83;64.44
75192;BME280;63771;52.580;9.734;2023-05-07T11:34:57;101791.78;;;13.87;63.81
75192;BME280;63771;52.580;9.734;2023-05-07T11:37:24;101789.00;;;13.94;65.69
75192;BME280;63771;52.580;9.734;2023-05-07T11:39:49;101794.00;;;14.03;66.95
75192;BME280;63771;52.580;9.734;2023-05-07T11:42:37;101808.00;;;14.17;66.63
75192;BME280;63771;52.580;9.734;2023-05-07T11:45:03;101794.13;;;14.25;65.00
75192;BME280;63771;52.580;9.734;2023-05-07T11:47:32;101795.19;;;14.27;63.75
75192;BME280;63771;52.580;9.734;2023-05-07T11:50:03;101793.63;;;14.29;64.27
75192;BME280;63771;52.580;9.734;2023-05-07T11:52:29;101790.56;;;14.33;64.51
75192;BME280;63771;52.580;9.734;2023-05-07T11:54:56;101801.84;;;14.25;64.27
75192;BME280;63771;52.580;9.734;2023-05-07T11:57:23;101790.28;;;14.30;64.15
75192;BME280;63771;52.580;9.734;2023-05-07T11:59:55;101800.06;;;14.34;64.46
75192;BME280;63771;52.580;9.734;2023-05-07T12:02:21;101793.78;;;14.30;63.45
75192;BME280;63771;52.580;9.734;2023-05-07T12:04:46;101791.06;;;14.29;64.87
75192;BME280;63771;52.580;9.734;2023-05-07T12:20:38;101809.81;;;14.38;64.74
75192;BME280;63771;52.580;9.734;2023-05-07T12:23:04;101806.47;;;14.39;62.14
75192;BME280;63771;52.580;9.734;2023-05-07T12:25:31;101801.09;;;14.46;64.49
75192;BME280;63771;52.580;9.734;2023-05-07T12:27:56;101805.72;;;14.50;63.90
75192;BME280;63771;52.580;9.734;2023-05-07T12:30:24;101802.16;;;14.48;62.76
75192;BME280;63771;52.580;9.734;2023-05-07T12:32:55;101801.25;;;14.48;63.14
75192;BME280;63771;52.580;9.734;2023-05-07T12:35:30;101810.25;;;14.53;64.02
75192;BME280;63771;52.580;9.734;2023-05-07T12:38:00;101801.25;;;14.58;63.34
75192;BME280;63771;52.580;9.734;2023-05-07T12:40:37;101806.38;;;14.48;62.78
75192;BME280;63771;52.580;9.734;2023-05-07T12:43:02;101806.00;;;14.53;63.76
75192;BME280;63771;52.580;9.734;2023-05-07T12:45:28;101802.66;;;14.54;62.95
75192;BME280;63771;52.580;9.734;2023-05-07T12:47:53;101803.81;;;14.58;62.97
75192;BME280;63771;52.580;9.734;2023-05-07T12:50:19;101809.97;;;14.60;62.05
75192;BME280;63771;52.580;9.734;2023-05-07T12:52:47;101801.75;;;14.64;62.11
75192;BME280;63771;52.580;9.734;2023-05-07T12:55:16;101804.72;;;14.58;61.02
75192;BME280;63771;52.580;9.734;2023-05-07T12:57:47;101791.38;;;14.63;62.05
75192;BME280;63771;52.580;9.734;2023-05-07T13:00:13;101806.13;;;14.65;61.46
75192;BME280;63771;52.580;9.734;2023-05-07T13:02:40;101804.81;;;14.70;62.52
75192;BME280;63771;52.580;9.734;2023-05-07T13:05:06;101803.53;;;14.75;61.95
75192;BME280;63771;52.580;9.734;2023-05-07T13:07:32;101804.44;;;14.76;61.83
75192;BME280;63771;52.580;9.734;2023-05-07T13:09:58;101807.38;;;14.80;62.12
75192;BME280;63771;52.580;9.734;2023-05-07T13:12:23;101805.72;;;14.71;61.75